Cedar Rapids (CID/KCID)

Map

Destinations

Information

Location
Cedar Rapids, IA
Local Time
17:31 / 5:31 pm
GMT Time
22:31 / 10:31 pm
Gates
A6
No FAA reported delays
METAR KCID 242152Z 10008KT 10SM FEW030 BKN038 25/19 A3004 RMK AO2 SLP167 T02500194
TAF KCID 241720Z 2418/2518 08005KT P6SM SCT015 BKN035 FM242000 06008KT P6SM SCT030 FM250100 11004KT P6SM SKC